Time;durP1;ratioP1;P1;durP2;ratioP2;P2;SDS_P1;SDS_P2;PMS_P1;PMS_P2;Temp;Humidity;BMP_temperature;BMP_pressure;BME280_temperature;BME280_humidity;BME280_pressure;Samples;Min_cycle;Max_cycle;Signal;HPM_P1;HPM_P2
2024/02/08 00:00:30;;;;;;;;;10.40;10.00;;;;;7.56;100.00;97682.25;6237991;27;96915;-54
2024/02/08 00:03:34;;;;;;;;;13.00;12.00;;;;;7.58;100.00;97677.47;6224387;28;98448;-53
2024/02/08 00:06:38;;;;;;;;;11.00;10.60;;;;;7.62;100.00;97675.16;6225049;28;96250;-53
2024/02/08 00:09:41;;;;;;;;;13.00;12.60;;;;;7.62;100.00;97684.03;6243587;28;96355;-53
2024/02/08 00:12:45;;;;;;;;;14.00;13.00;;;;;7.62;100.00;97677.84;6243412;28;96345;-55
2024/02/08 00:15:48;;;;;;;;;12.00;11.20;;;;;7.57;100.00;97669.66;6243732;28;96291;-53
2024/02/08 00:18:53;;;;;;;;;13.00;11.00;;;;;7.53;100.00;97674.66;6240912;28;96292;-53
2024/02/08 00:21:56;;;;;;;;;13.00;11.00;;;;;7.55;100.00;97682.47;6225417;28;96224;-53
2024/02/08 00:25:00;;;;;;;;;12.00;12.00;;;;;7.52;100.00;97680.28;6226182;28;97063;-54
2024/02/08 00:28:04;;;;;;;;;9.00;9.00;;;;;7.52;100.00;97677.59;6225201;28;96430;-53
2024/02/08 00:31:07;;;;;;;;;11.00;10.00;;;;;7.57;100.00;97677.72;6200336;28;96549;-53
2024/02/08 00:34:12;;;;;;;;;12.25;12.00;;;;;7.51;100.00;97692.88;6217881;28;96362;-53
2024/02/08 00:37:15;;;;;;;;;11.00;11.00;;;;;7.25;100.00;97635.13;6217799;28;96354;-53
2024/02/08 00:40:19;;;;;;;;;11.80;10.00;;;;;7.48;100.00;97679.91;6217723;28;96356;-53
2024/02/08 00:43:23;;;;;;;;;8.00;8.00;;;;;7.46;100.00;97679.34;6218194;28;96400;-53
2024/02/08 00:46:26;;;;;;;;;12.00;11.00;;;;;7.48;100.00;97682.59;6216791;28;96411;-54
2024/02/08 00:49:31;;;;;;;;;10.20;10.20;;;;;7.54;100.00;97684.34;6217843;28;97333;-54
2024/02/08 00:52:34;;;;;;;;;11.00;10.00;;;;;7.51;100.00;97684.00;6216567;28;97589;-54
2024/02/08 00:55:37;;;;;;;;;12.25;11.75;;;;;7.46;100.00;97675.81;6216293;28;96393;-54
2024/02/08 00:58:40;;;;;;;;;13.60;12.60;;;;;7.40;100.00;97667.66;6216149;28;96326;-54
2024/02/08 01:01:44;;;;;;;;;11.40;11.40;;;;;7.57;100.00;97683.91;6214183;28;98399;-54
2024/02/08 01:04:49;;;;;;;;;13.25;12.00;;;;;7.60;100.00;97685.28;6241578;28;96549;-54
2024/02/08 01:07:52;;;;;;;;;13.20;12.60;;;;;7.52;100.00;97675.72;6241004;28;96280;-54
2024/02/08 01:10:56;;;;;;;;;13.75;12.00;;;;;7.59;100.00;97686.34;6242338;28;96313;-53
2024/02/08 01:13:59;;;;;;;;;11.00;10.60;;;;;7.59;100.00;97684.47;6241158;27;96283;-54
2024/02/08 01:17:04;;;;;;;;;14.00;11.00;;;;;7.60;100.00;97682.59;6218436;28;96250;-53
2024/02/08 01:20:11;;;;;;;;;11.00;10.80;;;;;7.55;100.00;97680.63;6197812;28;96265;-54
2024/02/08 01:23:17;;;;;;;;;9.40;9.40;;;;;7.62;100.00;97684.03;6239251;28;96305;-53
2024/02/08 01:26:21;;;;;;;;;10.80;9.80;;;;;7.60;100.00;97686.09;6225390;28;96080;-57
2024/02/08 01:29:26;;;;;;;;;9.00;9.00;;;;;7.58;100.00;97682.00;6214889;28;96239;-58
2024/02/08 01:32:29;;;;;;;;;10.60;10.00;;;;;7.60;100.00;97677.25;6219102;28;96318;-57
2024/02/08 01:35:34;;;;;;;;;9.00;8.40;;;;;7.59;100.00;97672.91;6221141;28;98290;-57
2024/02/08 01:38:37;;;;;;;;;9.40;8.00;;;;;7.65;100.00;97672.00;6239667;28;97664;-57
2024/02/08 01:41:42;;;;;;;;;8.00;7.00;;;;;7.64;100.00;97662.31;6239317;28;96251;-57
2024/02/08 01:44:47;;;;;;;;;6.00;5.33;;;;;7.60;100.00;97659.28;6238735;28;96483;-56
2024/02/08 01:47:51;;;;;;;;;7.00;6.40;;;;;7.57;100.00;97661.63;6235260;28;96409;-57
2024/02/08 01:51:00;;;;;;;;;6.00;5.00;;;;;7.59;100.00;97662.19;6220567;28;96689;-57
2024/02/08 01:54:05;;;;;;;;;7.00;6.00;;;;;7.60;100.00;97656.59;6239648;28;96363;-56
2024/02/08 01:57:08;;;;;;;;;6.00;6.00;;;;;7.64;100.00;97656.94;6238673;28;96700;-56
2024/02/08 02:00:14;;;;;;;;;5.60;5.00;;;;;7.65;100.00;97647.84;6238830;28;96471;-56
2024/02/08 02:03:19;;;;;;;;;4.75;4.25;;;;;7.55;100.00;97636.88;6276673;22;98293;-57
2024/02/08 02:06:24;;;;;;;;;7.00;6.20;;;;;7.64;100.00;97651.59;6293441;27;96209;-57
2024/02/08 02:09:30;;;;;;;;;8.00;8.00;;;;;7.64;100.00;97656.94;6293204;27;97547;-57
2024/02/08 02:12:35;;;;;;;;;8.00;7.00;;;;;7.66;100.00;97652.19;6291434;27;96395;-57
2024/02/08 02:15:38;;;;;;;;;8.00;7.50;;;;;7.60;100.00;97655.78;6292531;27;96382;-54
2024/02/08 02:18:41;;;;;;;;;7.40;7.00;;;;;7.70;100.00;97656.84;6284136;27;96874;-54
2024/02/08 02:21:46;;;;;;;;;8.00;7.00;;;;;7.63;100.00;97658.81;6243804;28;96271;-54
2024/02/08 02:24:50;;;;;;;;;8.00;7.50;;;;;7.64;100.00;97655.09;6243654;27;96333;-54
2024/02/08 02:27:55;;;;;;;;;7.00;6.00;;;;;7.66;100.00;97661.03;6255251;27;96216;-54
2024/02/08 02:30:59;;;;;;;;;5.80;5.80;;;;;7.65;100.00;97654.03;6243506;27;96292;-54
2024/02/08 02:34:05;;;;;;;;;8.00;7.40;;;;;7.60;100.00;97648.56;6243926;28;96340;-54
2024/02/08 02:37:11;;;;;;;;;6.60;6.00;;;;;7.55;100.00;97651.13;6243935;28;96767;-54
2024/02/08 02:40:22;;;;;;;;;8.20;7.20;;;;;7.57;100.00;97654.41;6242638;27;96961;-54
2024/02/08 02:43:26;;;;;;;;;6.25;6.25;;;;;7.60;100.00;97647.75;6268247;27;96792;-54
2024/02/08 02:46:29;;;;;;;;;10.00;10.00;;;;;7.61;100.00;97650.19;6268570;27;96385;-54
2024/02/08 02:49:36;;;;;;;;;10.00;9.00;;;;;7.65;100.00;97659.41;6256396;27;96788;-54
2024/02/08 02:52:42;;;;;;;;;10.60;8.60;;;;;7.61;100.00;97650.19;6241749;28;96262;-54
2024/02/08 02:55:46;;;;;;;;;7.40;6.40;;;;;7.64;100.00;97648.91;6241819;28;97159;-54
2024/02/08 02:58:49;;;;;;;;;9.00;9.00;;;;;7.70;100.00;97653.34;6247584;27;96197;-54
2024/02/08 03:01:55;;;;;;;;;10.40;9.00;;;;;7.69;100.00;97655.22;6261392;27;96375;-54
2024/02/08 03:04:59;;;;;;;;;9.00;8.00;;;;;7.66;100.00;97663.72;6259814;27;96481;-54
2024/02/08 03:08:05;;;;;;;;;9.20;8.60;;;;;7.61;100.00;97647.53;6263918;27;97981;-54
2024/02/08 03:11:11;;;;;;;;;9.00;8.00;;;;;7.59;100.00;97646.91;6265867;27;96356;-54
2024/02/08 03:14:15;;;;;;;;;10.60;9.40;;;;;7.59;100.00;97646.91;6266953;27;96808;-54
2024/02/08 03:17:18;;;;;;;;;8.00;8.00;;;;;7.64;100.00;97649.72;6266620;27;96304;-54
2024/02/08 03:20:24;;;;;;;;;8.00;7.60;;;;;7.71;100.00;97655.81;6265549;27;96596;-54
2024/02/08 03:23:30;;;;;;;;;10.40;10.20;;;;;7.72;100.00;97652.03;6267561;27;96340;-55
2024/02/08 03:26:33;;;;;;;;;9.00;8.00;;;;;7.65;100.00;97651.34;6267186;27;96220;-54
2024/02/08 03:29:36;;;;;;;;;9.00;7.80;;;;;7.60;100.00;97642.38;6266702;27;96906;-54
2024/02/08 03:32:41;;;;;;;;;6.60;6.60;;;;;7.65;100.00;97653.22;6253350;27;96345;-54
2024/02/08 03:35:53;;;;;;;;;9.00;8.00;;;;;7.65;100.00;97655.91;6241919;27;96311;-54
2024/02/08 03:38:59;;;;;;;;;9.00;8.00;;;;;7.44;100.00;97633.16;6247002;28;96302;-54
2024/02/08 03:42:05;;;;;;;;;9.00;8.00;;;;;7.37;100.00;97627.91;6247399;27;96596;-54
2024/02/08 03:45:13;;;;;;;;;11.00;9.00;;;;;7.59;100.00;97654.97;6261118;27;96424;-54
2024/02/08 03:48:18;;;;;;;;;9.00;7.50;;;;;7.62;100.00;97662.56;6258770;27;96548;-54
2024/02/08 03:51:22;;;;;;;;;10.00;9.00;;;;;7.62;100.00;97662.56;6249878;27;97440;-54
2024/02/08 03:54:30;;;;;;;;;12.00;9.00;;;;;7.44;100.00;97633.16;6245256;28;96302;-54
2024/02/08 03:57:33;;;;;;;;;10.00;9.00;;;;;7.66;100.00;97665.59;6245937;28;96414;-54
2024/02/08 04:00:42;;;;;;;;;10.00;10.00;;;;;7.61;100.00;97665.47;6245248;28;96839;-54
2024/02/08 04:03:53;;;;;;;;;11.80;10.20;;;;;7.48;100.00;97665.69;6237360;27;96401;-54
2024/02/08 04:07:19;;;;;;;;;11.00;10.00;;;;;7.30;100.00;97631.75;6221417;28;96764;-54
2024/02/08 04:53:30;;;;;;;;;11.60;10.60;;;;;7.49;100.00;97656.59;6241611;27;96276;-54
2024/02/08 04:54:03;;;;;;;;;8.50;8.50;;;;;7.53;100.00;97658.56;6247348;27;96646;-54
2024/02/08 04:57:11;;;;;;;;;9.00;8.50;;;;;7.29;100.00;97625.56;6268455;27;96156;-54
2024/02/08 05:00:16;;;;;;;;;9.60;9.40;;;;;7.48;100.00;97657.66;6248018;27;96299;-54
2024/02/08 05:03:19;;;;;;;;;11.67;11.00;;;;;7.42;100.00;97651.34;6230071;27;97119;-54
2024/02/08 05:06:25;;;;;;;;;12.00;10.00;;;;;7.22;100.00;97632.91;6265036;27;96282;-54
2024/02/08 05:09:30;;;;;;;;;10.25;10.00;;;;;7.38;100.00;97666.25;6230066;28;96532;-54
2024/02/08 05:12:33;;;;;;;;;8.00;8.00;;;;;7.36;100.00;97655.78;6234241;28;96642;-54
2024/02/08 05:15:38;;;;;;;;;8.00;7.00;;;;;7.40;100.00;97658.81;6225662;28;96172;-54
2024/02/08 05:18:43;;;;;;;;;10.00;8.60;;;;;7.42;100.00;97662.06;6240302;27;97948;-54
2024/02/08 05:21:46;;;;;;;;;10.40;10.00;;;;;7.43;100.00;97660.22;6233192;27;96284;-54
2024/02/08 05:24:49;;;;;;;;;8.60;7.60;;;;;7.49;100.00;97662.78;6244518;27;96597;-54
2024/02/08 05:27:53;;;;;;;;;10.00;6.20;;;;;7.46;100.00;97655.19;6236394;27;96227;-54
2024/02/08 05:30:57;;;;;;;;;8.75;8.00;;;;;7.46;100.00;97657.06;6241043;27;96850;-55
2024/02/08 05:34:00;;;;;;;;;9.00;8.20;;;;;7.45;100.00;97664.28;6234782;27;96346;-54
2024/02/08 05:37:04;;;;;;;;;10.00;8.00;;;;;7.47;100.00;97664.06;6238365;27;96284;-53
2024/02/08 05:40:14;;;;;;;;;11.00;10.00;;;;;7.46;100.00;97662.41;6251524;27;96565;-54
2024/02/08 05:43:17;;;;;;;;;10.00;9.00;;;;;7.46;100.00;97662.41;6230168;28;96612;-53
2024/02/08 05:46:24;;;;;;;;;10.00;9.80;;;;;7.39;100.00;97652.63;6244239;27;96587;-53
2024/02/08 05:49:30;;;;;;;;;9.00;9.00;;;;;7.39;100.00;97655.28;6246711;27;96155;-54
2024/02/08 05:52:33;;;;;;;;;8.80;7.80;;;;;7.45;100.00;97660.78;6240581;27;96497;-53
2024/02/08 05:55:39;;;;;;;;;11.40;10.00;;;;;7.51;100.00;97665.22;6241979;27;97564;-54
2024/02/08 05:58:44;;;;;;;;;11.00;10.50;;;;;7.43;100.00;97654.84;6242085;27;96339;-53
2024/02/08 06:01:54;;;;;;;;;10.00;9.00;;;;;7.56;100.00;97665.34;6239690;28;97230;-54
2024/02/08 06:05:08;;;;;;;;;10.60;10.00;;;;;7.57;100.00;97653.59;6268832;27;96936;-54
2024/02/08 06:08:25;;;;;;;;;12.60;11.60;;;;;7.59;100.00;97660.34;6275535;27;96618;-54
2024/02/08 06:11:28;;;;;;;;;10.00;10.00;;;;;7.61;100.00;97660.09;6276264;27;96890;-54
2024/02/08 06:14:38;;;;;;;;;11.20;10.20;;;;;7.62;100.00;97677.84;6237892;27;97653;-54
2024/02/08 06:17:45;;;;;;;;;10.20;9.00;;;;;7.64;100.00;97683.78;6285820;27;96187;-54
2024/02/08 06:20:59;;;;;;;;;13.60;10.40;;;;;7.70;100.00;97688.22;6283743;27;97396;-54
2024/02/08 06:24:29;;;;;;;;;11.00;9.60;;;;;7.75;100.00;97694.53;6260810;27;98345;-54
2024/02/08 06:27:33;;;;;;;;;11.75;10.75;;;;;7.80;100.00;97686.59;6238249;27;96716;-54
2024/02/08 06:30:36;;;;;;;;;10.00;9.00;;;;;7.84;100.00;97697.66;6264215;27;96817;-54
2024/02/08 06:34:09;;;;;;;;;10.00;10.00;;;;;7.89;100.00;97694.28;6270520;27;96904;-54
2024/02/08 06:37:25;;;;;;;;;11.40;10.40;;;;;7.90;100.00;97682.50;6273550;27;96366;-54
2024/02/08 06:40:40;;;;;;;;;13.00;11.00;;;;;7.97;100.00;97681.31;6277473;27;96196;-54
2024/02/08 06:43:57;;;;;;;;;9.60;8.60;;;;;8.07;100.00;97696.84;6290532;27;96360;-54
2024/02/08 07:37:18;;;;;;;;;11.25;9.25;;;;;8.69;100.00;97695.25;6278080;27;96272;-55
2024/02/08 07:40:26;;;;;;;;;11.40;11.40;;;;;8.77;100.00;97696.72;6288517;27;96470;-55
2024/02/08 07:43:34;;;;;;;;;11.60;11.00;;;;;8.80;100.00;97693.56;6277732;27;98034;-55
2024/02/08 07:46:40;;;;;;;;;13.25;12.50;;;;;8.79;100.00;97684.72;6277788;27;96360;-55
2024/02/08 07:49:43;;;;;;;;;12.00;11.00;;;;;8.79;100.00;97683.88;6289416;27;96476;-55
2024/02/08 07:52:55;;;;;;;;;11.00;11.00;;;;;8.83;100.00;97672.41;6272838;27;96945;-55
2024/02/08 07:59:27;;;;;;;;;11.60;11.40;;;;;8.95;100.00;97680.41;6266821;27;97028;-55
2024/02/08 08:02:30;;;;;;;;;12.60;11.60;;;;;8.99;100.00;97673.53;6272198;27;96420;-55
2024/02/08 08:05:41;;;;;;;;;13.00;11.25;;;;;9.00;100.00;97673.25;6275328;27;96764;-55
2024/02/08 08:08:57;;;;;;;;;9.60;8.40;;;;;8.95;100.00;97677.72;6267871;27;97682;-55
2024/02/08 08:12:04;;;;;;;;;12.20;11.00;;;;;8.85;100.00;97678.34;6280811;27;96596;-55
2024/02/08 08:15:13;;;;;;;;;13.40;12.00;;;;;8.81;100.00;97674.50;6290302;27;96592;-55
2024/02/08 08:18:23;;;;;;;;;10.00;9.00;;;;;8.84;100.00;97670.53;6250748;27;96354;-55
2024/02/08 08:22:03;;;;;;;;;11.00;10.50;;;;;8.92;100.00;97662.09;6266853;27;96395;-55
2024/02/08 08:25:00;;;;;;;;;9.60;9.40;;;;;8.96;100.00;97669.44;6264036;27;96555;-55
2024/02/08 08:28:29;;;;;;;;;15.00;15.00;;;;;8.94;100.00;97657.31;6265863;27;96267;-55
2024/02/08 08:31:36;;;;;;;;;20.00;18.00;;;;;8.86;100.00;97654.97;6265805;27;96324;-55
2024/02/08 08:38:28;;;;;;;;;13.80;13.80;;;;;8.57;100.00;97657.66;6231822;27;96453;-55
2024/02/08 08:41:31;;;;;;;;;18.00;15.80;;;;;8.68;100.00;97662.19;6263405;27;96254;-55
2024/02/08 08:44:36;;;;;;;;;14.00;13.00;;;;;8.84;100.00;97649.88;6263187;27;96496;-55
2024/02/08 08:47:40;;;;;;;;;14.80;14.20;;;;;8.95;100.00;97650.84;6263556;27;96490;-55
2024/02/08 08:50:49;;;;;;;;;16.00;16.00;;;;;9.09;100.00;97646.78;6265282;27;96335;-55
2024/02/08 08:54:00;;;;;;;;;13.00;11.00;;;;;9.18;100.00;97641.84;6265330;27;96253;-55
2024/02/08 08:57:12;;;;;;;;;17.40;14.00;;;;;9.11;100.00;97632.06;6265219;27;96400;-55
2024/02/08 09:00:31;;;;;;;;;19.60;17.20;;;;;9.22;100.00;97635.75;6278034;27;96363;-55
2024/02/08 09:03:38;;;;;;;;;21.20;19.00;;;;;9.46;100.00;97652.53;6289812;27;96248;-55
2024/02/08 09:06:42;;;;;;;;;20.00;18.00;;;;;9.64;100.00;97644.22;6292860;27;96277;-55
2024/02/08 09:10:04;;;;;;;;;18.00;16.00;;;;;9.45;100.00;97640.97;6297581;27;96335;-55
2024/02/08 09:13:08;;;;;;;;;19.00;17.75;;;;;8.88;100.00;97637.56;6298241;27;96215;-55
2024/02/08 09:19:32;;;;;;;;;16.50;15.50;;;;;8.72;100.00;97638.34;6295952;27;96318;-55
2024/02/08 09:22:39;;;;;;;;;16.40;14.00;;;;;8.84;100.00;97649.88;6295819;27;97410;-55
2024/02/08 09:25:45;;;;;;;;;18.80;17.00;;;;;8.86;100.00;97655.81;6278381;27;96864;-55
2024/02/08 09:28:50;;;;;;;;;18.00;17.00;;;;;8.78;100.00;97658.88;6297445;27;96215;-55
2024/02/08 09:31:58;;;;;;;;;18.00;16.00;;;;;8.68;100.00;97650.63;6293302;27;96913;-55
2024/02/08 09:35:01;;;;;;;;;19.00;16.00;;;;;8.67;100.00;97647.13;6262106;27;96706;-55
2024/02/08 09:38:04;;;;;;;;;18.00;16.50;;;;;8.83;100.00;97650.91;6270108;27;96947;-55
2024/02/08 09:41:09;;;;;;;;;18.00;16.00;;;;;8.90;100.00;97642.69;6234477;27;98956;-55
2024/02/08 09:44:13;;;;;;;;;17.20;15.20;;;;;9.09;100.00;97638.72;6275202;27;96709;-55
2024/02/08 09:47:25;;;;;;;;;15.75;13.00;;;;;8.92;100.00;97637.91;6247621;27;96302;-55
2024/02/08 09:50:35;;;;;;;;;15.00;14.00;;;;;8.75;100.00;97631.69;6274107;27;96229;-55
2024/02/08 09:53:51;;;;;;;;;11.00;9.00;;;;;8.54;100.00;97620.56;6279127;27;96291;-55
2024/02/08 09:57:01;;;;;;;;;13.00;12.00;;;;;8.32;100.00;97619.56;6278168;27;96249;-55
2024/02/08 10:00:34;;;;;;;;;11.00;10.00;;;;;8.11;100.00;97609.44;6272042;27;96226;-55
2024/02/08 10:03:36;;;;;;;;;12.00;11.00;;;;;8.19;100.00;97601.81;6252338;27;96769;-55
2024/02/08 10:06:45;;;;;;;;;13.00;12.50;;;;;8.36;100.00;97590.34;6271548;27;96297;-55
2024/02/08 10:09:53;;;;;;;;;11.25;11.00;;;;;8.41;100.00;97595.81;6267081;27;96295;-55
2024/02/08 10:13:05;;;;;;;;;12.00;10.75;;;;;8.45;100.00;97594.31;6269152;27;96434;-55
2024/02/08 10:16:12;;;;;;;;;12.00;11.40;;;;;8.58;100.00;97589.47;6271056;27;96457;-54
2024/02/08 10:19:28;;;;;;;;;13.00;12.00;;;;;8.83;100.00;97588.28;6263714;27;96331;-55
2024/02/08 10:22:33;;;;;;;;;17.00;16.00;;;;;8.96;100.00;97590.66;6263675;27;96965;-55
2024/02/08 10:28:58;;;;;;;;;19.00;17.00;;;;;8.83;100.00;97566.78;6263501;27;96757;-55
2024/02/08 10:32:01;;;;;;;;;19.50;16.75;;;;;8.79;100.00;97569.16;6262026;27;96073;-55
2024/02/08 10:35:14;;;;;;;;;18.40;16.40;;;;;8.65;100.00;97568.63;6263430;27;96454;-55
2024/02/08 10:38:29;;;;;;;;;20.00;17.20;;;;;8.83;100.00;97558.72;6263164;27;96250;-55
2024/02/08 10:41:38;;;;;;;;;16.80;15.80;;;;;8.69;100.00;97526.81;6261998;27;96534;-55
2024/02/08 10:44:44;;;;;;;;;18.00;16.00;;;;;8.94;100.00;97547.09;6260284;27;96677;-55
2024/02/08 10:47:48;;;;;;;;;16.00;15.00;;;;;8.55;100.00;97522.78;6263191;27;96832;-55
2024/02/08 10:50:53;;;;;;;;;15.40;13.60;;;;;8.84;100.00;97542.38;6263008;27;96382;-55
2024/02/08 10:54:06;;;;;;;;;17.50;15.50;;;;;9.10;100.00;97541.72;6262762;27;96251;-55
2024/02/08 10:57:39;;;;;;;;;18.00;16.75;;;;;8.86;100.00;97550.16;6254636;27;96360;-55
2024/02/08 11:04:11;;;;;;;;;16.00;13.60;;;;;8.65;100.00;97524.81;6247187;27;97578;-55
2024/02/08 11:07:22;;;;;;;;;15.33;14.00;;;;;8.67;100.00;97526.22;6288392;27;97434;-55
2024/02/08 11:10:31;;;;;;;;;16.40;13.80;;;;;8.50;100.00;97513.84;6287904;27;96391;-55
2024/02/08 11:13:39;;;;;;;;;11.80;10.00;;;;;8.29;100.00;97523.34;6287786;27;96350;-55
2024/02/08 11:16:47;;;;;;;;;13.40;12.60;;;;;8.27;100.00;97499.44;6287742;27;96406;-55
2024/02/08 11:19:56;;;;;;;;;12.00;11.00;;;;;8.37;100.00;97473.84;6288003;27;96249;-55
2024/02/08 11:23:09;;;;;;;;;11.00;10.00;;;;;8.58;100.00;97495.44;6286636;27;96371;-55
2024/02/08 11:26:13;;;;;;;;;10.60;8.00;;;;;8.66;100.00;97495.03;6276776;27;96559;-55
2024/02/08 11:29:19;;;;;;;;;9.00;9.00;;;;;8.49;100.00;97488.03;6260479;27;96895;-53
2024/02/08 11:32:24;;;;;;;;;10.80;10.00;;;;;8.50;100.00;97468.19;6261488;27;96300;-53
2024/02/08 11:35:30;;;;;;;;;10.00;9.00;;;;;8.56;100.00;97496.72;6261689;27;96309;-53
2024/02/08 11:38:35;;;;;;;;;12.00;10.00;;;;;8.56;100.00;97499.41;6243190;27;96306;-53
2024/02/08 11:41:42;;;;;;;;;9.50;8.00;;;;;8.39;100.00;97494.03;6261691;27;96372;-52
2024/02/08 11:44:46;;;;;;;;;12.00;12.00;;;;;8.60;100.00;97500.59;6261405;27;96288;-53
2024/02/08 11:47:50;;;;;;;;;9.00;9.00;;;;;8.56;100.00;97494.88;6243664;27;96768;-53
2024/02/08 11:50:58;;;;;;;;;10.00;9.00;;;;;8.65;100.00;97506.00;6262801;27;97011;-52
2024/02/08 11:54:09;;;;;;;;;9.60;8.00;;;;;8.54;100.00;97499.69;6260398;27;96301;-53
2024/02/08 11:57:13;;;;;;;;;10.00;10.00;;;;;8.63;100.00;97484.78;6263238;27;96355;-53
2024/02/08 12:00:24;;;;;;;;;11.00;10.00;;;;;8.39;100.00;97469.88;6248234;27;97051;-52
2024/02/08 12:03:29;;;;;;;;;12.60;12.20;;;;;8.43;100.00;97475.56;6247767;27;96819;-52
2024/02/08 12:06:34;;;;;;;;;9.00;8.60;;;;;8.59;100.00;97472.91;6265787;27;96478;-53
2024/02/08 12:09:39;;;;;;;;;10.00;10.00;;;;;8.62;100.00;97425.94;6266781;27;96378;-52
2024/02/08 12:12:44;;;;;;;;;10.60;10.60;;;;;8.83;100.00;97443.19;6265456;27;96459;-53
2024/02/08 12:15:55;;;;;;;;;11.40;11.00;;;;;8.88;100.00;97441.41;6266695;27;96278;-52
2024/02/08 12:19:05;;;;;;;;;11.00;9.00;;;;;8.82;100.00;97438.88;6266293;27;96399;-52
2024/02/08 12:22:14;;;;;;;;;11.00;9.00;;;;;8.92;100.00;97437.16;6266572;27;96296;-53
2024/02/08 12:25:20;;;;;;;;;9.40;8.80;;;;;8.87;100.00;97436.25;6266192;27;96195;-52
2024/02/08 12:28:25;;;;;;;;;8.20;8.20;;;;;9.01;100.00;97438.34;6248311;27;96883;-52
2024/02/08 12:31:32;;;;;;;;;9.40;9.00;;;;;9.16;100.00;97439.63;6246458;27;96379;-53
2024/02/08 12:34:35;;;;;;;;;10.00;9.00;;;;;9.18;100.00;97432.13;6265016;27;96390;-54
2024/02/08 12:37:41;;;;;;;;;9.00;9.00;;;;;9.14;100.00;97427.25;6266192;27;96333;-53
2024/02/08 12:40:47;;;;;;;;;9.40;9.40;;;;;9.04;100.00;97421.72;6265957;27;96364;-53
2024/02/08 12:43:52;;;;;;;;;9.40;8.00;;;;;9.19;100.00;97421.13;6265917;27;96457;-52
2024/02/08 12:46:56;;;;;;;;;11.00;10.00;;;;;9.25;100.00;97430.88;6265913;27;96328;-53
2024/02/08 12:49:59;;;;;;;;;9.50;8.25;;;;;9.25;100.00;97428.19;6265354;27;96447;-53
2024/02/08 12:53:19;;;;;;;;;10.40;9.80;;;;;8.95;100.00;97398.19;6265842;27;96497;-53
2024/02/08 12:56:23;;;;;;;;;11.00;10.00;;;;;8.90;100.00;97416.94;6265497;27;96293;-53
2024/02/08 12:59:29;;;;;;;;;12.00;11.00;;;;;8.78;100.00;97410.88;6229797;27;99679;-52
2024/02/08 13:02:33;;;;;;;;;12.80;11.00;;;;;8.69;100.00;97413.16;6265597;27;96326;-53
2024/02/08 13:05:37;;;;;;;;;11.00;10.00;;;;;8.59;100.00;97410.31;6289849;27;96281;-52
2024/02/08 13:08:44;;;;;;;;;13.00;12.00;;;;;8.66;100.00;97401.00;6290284;27;96306;-52
2024/02/08 13:11:50;;;;;;;;;11.00;11.00;;;;;8.75;100.00;97398.72;6291110;27;96341;-52
2024/02/08 13:15:02;;;;;;;;;12.00;10.60;;;;;8.85;100.00;97404.25;6290621;27;96314;-53
2024/02/08 13:18:09;;;;;;;;;12.00;11.00;;;;;8.78;100.00;97381.31;6290381;27;96320;-53
2024/02/08 13:21:15;;;;;;;;;11.00;10.00;;;;;8.67;100.00;97367.72;6290426;27;96480;-53
2024/02/08 13:24:18;;;;;;;;;13.00;11.50;;;;;8.79;100.00;97388.31;6271199;27;98448;-53
2024/02/08 13:27:25;;;;;;;;;17.40;15.00;;;;;8.86;100.00;97391.63;6286563;27;96376;-53
2024/02/08 13:30:29;;;;;;;;;11.00;11.00;;;;;8.53;100.00;97390.63;6263624;27;96336;-53
2024/02/08 13:33:36;;;;;;;;;13.00;11.00;;;;;8.53;100.00;97385.25;6264672;27;97085;-53
2024/02/08 13:36:43;;;;;;;;;12.60;12.00;;;;;8.61;100.00;97379.44;6265462;27;96843;-53
2024/02/08 13:39:47;;;;;;;;;15.75;15.00;;;;;8.69;100.00;97381.72;6273452;27;96285;-53
2024/02/08 13:42:57;;;;;;;;;12.00;11.00;;;;;8.78;100.00;97389.38;6276827;27;96129;-54
2024/02/08 13:46:03;;;;;;;;;13.00;12.00;;;;;8.81;100.00;97376.25;6262859;27;96273;-53
2024/02/08 13:49:08;;;;;;;;;12.00;10.50;;;;;8.88;100.00;97365.34;6260606;27;98578;-55
2024/02/08 13:52:14;;;;;;;;;14.00;13.00;;;;;8.85;100.00;97342.44;6261008;27;96459;-54
2024/02/08 13:55:18;;;;;;;;;11.00;10.00;;;;;8.92;100.00;97371.81;6273810;27;96255;-54
2024/02/08 13:58:25;;;;;;;;;12.00;11.40;;;;;8.76;100.00;97345.78;6284025;27;96882;-54
2024/02/08 14:01:32;;;;;;;;;10.60;10.00;;;;;8.75;100.00;97354.94;6276379;27;96346;-54
2024/02/08 14:04:36;;;;;;;;;14.80;14.40;;;;;8.68;100.00;97361.28;6279863;27;96316;-54
2024/02/08 14:07:42;;;;;;;;;13.60;11.00;;;;;8.76;100.00;97359.22;6254989;27;96252;-54
2024/02/08 14:10:45;;;;;;;;;14.50;14.00;;;;;8.59;100.00;97329.72;6266361;27;96419;-54
2024/02/08 14:13:50;;;;;;;;;12.60;12.00;;;;;8.62;100.00;97327.34;6260977;27;96364;-54
2024/02/08 14:16:56;;;;;;;;;13.40;12.40;;;;;8.78;100.00;97367.88;6273267;27;96279;-54
2024/02/08 14:19:59;;;;;;;;;11.40;11.40;;;;;8.69;100.00;97359.44;6258298;27;96450;-54
2024/02/08 14:23:04;;;;;;;;;13.00;12.00;;;;;8.68;100.00;97353.25;6278580;27;96418;-54
2024/02/08 14:26:31;;;;;;;;;12.40;11.00;;;;;8.74;100.00;97346.06;6284520;27;96944;-54
2024/02/08 14:29:37;;;;;;;;;14.50;13.75;;;;;8.69;100.00;97349.50;6273692;27;96450;-54
2024/02/08 14:32:40;;;;;;;;;11.75;10.00;;;;;8.77;100.00;97342.06;6276821;27;96327;-54
2024/02/08 14:35:46;;;;;;;;;13.60;12.60;;;;;8.70;100.00;97351.09;6272171;27;96530;-55
2024/02/08 14:38:52;;;;;;;;;13.60;12.00;;;;;8.56;100.00;97339.06;6277476;27;96234;-54
2024/02/08 14:41:55;;;;;;;;;12.00;11.00;;;;;8.43;100.00;97344.78;6271938;27;96189;-54
2024/02/08 14:45:00;;;;;;;;;15.00;14.00;;;;;8.41;100.00;97332.66;6253079;27;96762;-54
2024/02/08 14:48:04;;;;;;;;;15.75;14.75;;;;;8.61;100.00;97338.34;6265316;27;97776;-54
2024/02/08 14:51:29;;;;;;;;;12.60;12.00;;;;;8.63;100.00;97329.00;6280784;27;96501;-54
2024/02/08 14:54:30;;;;;;;;;13.00;12.00;;;;;8.59;100.00;97327.03;6264132;27;98475;-54
2024/02/08 14:57:39;;;;;;;;;11.00;10.00;;;;;8.67;100.00;97330.13;6270754;27;97751;-54
2024/02/08 15:00:57;;;;;;;;;12.00;11.60;;;;;8.81;100.00;97338.63;6270468;27;96226;-54
2024/02/08 15:04:03;;;;;;;;;12.00;11.00;;;;;8.93;100.00;97347.41;6275892;27;96292;-54
2024/02/08 15:07:08;;;;;;;;;11.00;10.60;;;;;8.87;100.00;97321.53;6272460;27;96718;-54
2024/02/08 15:10:13;;;;;;;;;13.20;11.20;;;;;8.82;100.00;97328.69;6264979;27;98860;-54
2024/02/08 15:13:19;;;;;;;;;12.60;11.00;;;;;8.89;100.00;97334.72;6245629;27;96749;-54
2024/02/08 15:16:30;;;;;;;;;14.25;13.00;;;;;8.86;100.00;97332.50;6247078;27;96956;-54
2024/02/08 15:19:33;;;;;;;;;15.00;14.00;;;;;8.93;100.00;97319.72;6245420;28;97322;-54
2024/02/08 15:22:49;;;;;;;;;13.00;12.00;;;;;8.81;100.00;97324.38;6247553;28;96287;-54
2024/02/08 15:25:51;;;;;;;;;11.25;10.25;;;;;8.78;100.00;97317.63;6245937;28;96249;-54
2024/02/08 15:28:59;;;;;;;;;12.40;10.40;;;;;8.70;100.00;97301.94;6247228;28;96316;-54
2024/02/08 15:32:10;;;;;;;;;13.20;12.20;;;;;8.83;100.00;97319.56;6248494;27;96305;-54
2024/02/08 15:35:26;;;;;;;;;13.60;13.00;;;;;8.72;100.00;97315.13;6249598;28;96308;-54
2024/02/08 15:38:48;;;;;;;;;13.40;12.40;;;;;8.82;100.00;97315.25;6250276;28;96291;-54
2024/02/08 15:41:55;;;;;;;;;11.80;11.40;;;;;8.83;100.00;97308.84;6251618;28;97638;-54
2024/02/08 15:44:58;;;;;;;;;14.60;13.20;;;;;8.90;100.00;97312.94;6262244;27;97047;-55
2024/02/08 15:48:10;;;;;;;;;14.00;14.00;;;;;8.91;100.00;97306.53;6273483;27;100225;-54
2024/02/08 15:51:14;;;;;;;;;13.40;12.40;;;;;8.88;100.00;97320.47;6276348;27;96286;-54
2024/02/08 15:54:23;;;;;;;;;13.00;12.00;;;;;8.90;100.00;97307.56;6276495;27;96877;-54
2024/02/08 15:57:29;;;;;;;;;14.00;11.80;;;;;8.84;100.00;97313.97;6258937;27;96468;-54
2024/02/08 16:01:02;;;;;;;;;13.00;12.80;;;;;8.85;100.00;97304.81;6250984;27;96226;-54
2024/02/08 16:04:00;;;;;;;;;13.00;13.00;;;;;8.72;100.00;97302.50;6251279;27;97243;-54
2024/02/08 16:07:11;;;;;;;;;12.00;11.00;;;;;8.80;100.00;97298.56;6264922;27;96274;-54
2024/02/08 16:10:24;;;;;;;;;13.00;12.40;;;;;8.88;100.00;97308.91;6240433;28;96290;-53
2024/02/08 16:13:34;;;;;;;;;15.00;13.00;;;;;8.89;100.00;97324.78;6246434;27;96236;-53